Terminal Aerodrome Forecast
Issued by NWS Mt. Holly, NJ

Home | Current Version | Previous Version | Text Only | Print | Product List | Glossary On
Versions: 1 2 3 4 5 6 7 8 9 10 11 12 13 14 15 16 17 18 19
354
FTUS41 KPHI 071140
TAFRDG
TAF
KRDG 071140Z 0712/0812 00000KT 4SM BR SCT005 OVC014
     FM071300 31004KT 6SM BR SCT006 BKN022
     FM071600 29008KT P6SM SCT025 BKN120
      TEMPO 0716/0719 BKN020
     FM080000 28003KT P6SM BKN100=

USA.gov is the U.S. government's official web portal to all federal, state and local government web resources and services.